sensor_id;sensor_type;location;lat;lon;timestamp;temperature;humidity
9820;DHT22;4949;48.482;9.206;2023-12-20T00:01:27;7.20;97.40
9820;DHT22;4949;48.482;9.206;2023-12-20T00:06:28;6.90;97.10
9820;DHT22;4949;48.482;9.206;2023-12-20T00:11:29;6.90;96.90
9820;DHT22;4949;48.482;9.206;2023-12-20T00:16:32;6.90;97.10
9820;DHT22;4949;48.482;9.206;2023-12-20T00:21:33;6.90;97.10
9820;DHT22;4949;48.482;9.206;2023-12-20T00:26:34;6.90;97.20
9820;DHT22;4949;48.482;9.206;2023-12-20T00:31:35;7.00;97.10
9820;DHT22;4949;48.482;9.206;2023-12-20T00:36:36;7.00;97.30
9820;DHT22;4949;48.482;9.206;2023-12-20T00:41:40;6.90;97.60
9820;DHT22;4949;48.482;9.206;2023-12-20T00:46:41;7.30;97.70
9820;DHT22;4949;48.482;9.206;2023-12-20T00:51:41;6.90;97.50
9820;DHT22;4949;48.482;9.206;2023-12-20T00:56:43;6.90;97.30
9820;DHT22;4949;48.482;9.206;2023-12-20T01:01:44;6.90;97.50
9820;DHT22;4949;48.482;9.206;2023-12-20T01:06:46;6.90;97.80
9820;DHT22;4949;48.482;9.206;2023-12-20T01:11:47;6.90;97.90
9820;DHT22;4949;48.482;9.206;2023-12-20T01:16:52;7.20;98.20
9820;DHT22;4949;48.482;9.206;2023-12-20T01:21:53;6.90;97.90
9820;DHT22;4949;48.482;9.206;2023-12-20T01:26:54;6.90;97.50
9820;DHT22;4949;48.482;9.206;2023-12-20T01:31:54;6.90;97.30
9820;DHT22;4949;48.482;9.206;2023-12-20T01:36:58;6.90;97.10
9820;DHT22;4949;48.482;9.206;2023-12-20T01:41:59;6.90;97.20
9820;DHT22;4949;48.482;9.206;2023-12-20T01:47:02;6.90;97.30
9820;DHT22;4949;48.482;9.206;2023-12-20T01:52:04;6.90;97.60
9820;DHT22;4949;48.482;9.206;2023-12-20T01:57:08;6.90;97.80
9820;DHT22;4949;48.482;9.206;2023-12-20T02:02:11;6.90;97.80
9820;DHT22;4949;48.482;9.206;2023-12-20T02:07:13;6.80;98.30
9820;DHT22;4949;48.482;9.206;2023-12-20T02:12:14;6.90;98.70
9820;DHT22;4949;48.482;9.206;2023-12-20T02:17:16;6.90;98.50
9820;DHT22;4949;48.482;9.206;2023-12-20T02:22:16;7.20;99.20
9820;DHT22;4949;48.482;9.206;2023-12-20T02:27:20;7.10;99.40
9820;DHT22;4949;48.482;9.206;2023-12-20T02:32:25;6.90;99.30
9820;DHT22;4949;48.482;9.206;2023-12-20T02:37:29;6.80;99.80
9820;DHT22;4949;48.482;9.206;2023-12-20T02:42:32;6.70;99.90
9820;DHT22;4949;48.482;9.206;2023-12-20T02:47:33;6.70;99.90
9820;DHT22;4949;48.482;9.206;2023-12-20T02:52:35;6.70;99.90
9820;DHT22;4949;48.482;9.206;2023-12-20T02:57:36;6.80;99.90
9820;DHT22;4949;48.482;9.206;2023-12-20T03:02:41;7.10;99.90
9820;DHT22;4949;48.482;9.206;2023-12-20T03:07:45;6.70;99.90
9820;DHT22;4949;48.482;9.206;2023-12-20T03:12:46;6.80;99.90
9820;DHT22;4949;48.482;9.206;2023-12-20T03:17:47;6.80;99.90
9820;DHT22;4949;48.482;9.206;2023-12-20T03:22:47;7.00;99.90
9820;DHT22;4949;48.482;9.206;2023-12-20T03:27:50;6.60;99.90
9820;DHT22;4949;48.482;9.206;2023-12-20T03:32:51;6.60;99.90
9820;DHT22;4949;48.482;9.206;2023-12-20T03:37:52;7.00;99.90
9820;DHT22;4949;48.482;9.206;2023-12-20T03:42:53;6.50;99.90
9820;DHT22;4949;48.482;9.206;2023-12-20T03:47:53;6.90;99.90
9820;DHT22;4949;48.482;9.206;2023-12-20T03:52:57;6.60;99.90
9820;DHT22;4949;48.482;9.206;2023-12-20T03:57:58;6.60;99.90
9820;DHT22;4949;48.482;9.206;2023-12-20T04:03:00;6.60;99.90
9820;DHT22;4949;48.482;9.206;2023-12-20T04:08:01;6.60;99.90
9820;DHT22;4949;48.482;9.206;2023-12-20T04:13:05;6.60;99.90
9820;DHT22;4949;48.482;9.206;2023-12-20T04:18:06;7.00;99.90
9820;DHT22;4949;48.482;9.206;2023-12-20T04:23:06;6.60;99.90
9820;DHT22;4949;48.482;9.206;2023-12-20T04:28:07;7.00;99.90
9820;DHT22;4949;48.482;9.206;2023-12-20T04:33:08;7.00;99.90
9820;DHT22;4949;48.482;9.206;2023-12-20T04:38:09;6.70;99.90
9820;DHT22;4949;48.482;9.206;2023-12-20T04:43:12;6.80;99.90
9820;DHT22;4949;48.482;9.206;2023-12-20T04:48:15;6.90;99.90
9820;DHT22;4949;48.482;9.206;2023-12-20T04:53:15;6.70;99.90
9820;DHT22;4949;48.482;9.206;2023-12-20T04:58:16;6.70;99.90
9820;DHT22;4949;48.482;9.206;2023-12-20T05:03:19;6.70;99.90
9820;DHT22;4949;48.482;9.206;2023-12-20T05:08:20;6.70;99.90
9820;DHT22;4949;48.482;9.206;2023-12-20T05:13:21;7.10;99.90
9820;DHT22;4949;48.482;9.206;2023-12-20T05:18:22;6.60;99.90
9820;DHT22;4949;48.482;9.206;2023-12-20T05:23:23;6.50;99.90
9820;DHT22;4949;48.482;9.206;2023-12-20T05:28:24;6.70;99.90
9820;DHT22;4949;48.482;9.206;2023-12-20T05:33:27;6.40;99.90
9820;DHT22;4949;48.482;9.206;2023-12-20T05:38:27;6.80;99.90
9820;DHT22;4949;48.482;9.206;2023-12-20T05:43:28;6.50;99.90
9820;DHT22;4949;48.482;9.206;2023-12-20T05:48:29;6.40;99.90
9820;DHT22;4949;48.482;9.206;2023-12-20T05:53:30;6.40;99.90
9820;DHT22;4949;48.482;9.206;2023-12-20T05:58:32;6.40;99.90
9820;DHT22;4949;48.482;9.206;2023-12-20T06:03:35;6.40;99.90
9820;DHT22;4949;48.482;9.206;2023-12-20T06:08:38;6.40;99.90
9820;DHT22;4949;48.482;9.206;2023-12-20T06:13:41;6.80;99.90
9820;DHT22;4949;48.482;9.206;2023-12-20T06:18:45;6.30;99.90
9820;DHT22;4949;48.482;9.206;2023-12-20T06:23:45;5.90;99.90
9820;DHT22;4949;48.482;9.206;2023-12-20T06:28:46;6.20;99.90
9820;DHT22;4949;48.482;9.206;2023-12-20T06:33:47;6.70;99.90
9820;DHT22;4949;48.482;9.206;2023-12-20T06:38:50;6.40;99.90
9820;DHT22;4949;48.482;9.206;2023-12-20T06:43:51;6.40;99.90
9820;DHT22;4949;48.482;9.206;2023-12-20T06:48:53;6.40;99.90
9820;DHT22;4949;48.482;9.206;2023-12-20T06:53:54;6.50;99.90
9820;DHT22;4949;48.482;9.206;2023-12-20T06:58:57;6.50;99.90
9820;DHT22;4949;48.482;9.206;2023-12-20T07:03:57;6.50;99.90
9820;DHT22;4949;48.482;9.206;2023-12-20T07:09:01;6.50;99.90
9820;DHT22;4949;48.482;9.206;2023-12-20T07:14:04;6.50;99.90
9820;DHT22;4949;48.482;9.206;2023-12-20T07:19:04;6.40;99.90
9820;DHT22;4949;48.482;9.206;2023-12-20T07:24:05;6.60;99.90
9820;DHT22;4949;48.482;9.206;2023-12-20T07:29:06;6.50;99.90
9820;DHT22;4949;48.482;9.206;2023-12-20T07:34:07;6.50;99.90
9820;DHT22;4949;48.482;9.206;2023-12-20T07:39:10;6.60;99.90
9820;DHT22;4949;48.482;9.206;2023-12-20T07:44:13;6.70;99.90
9820;DHT22;4949;48.482;9.206;2023-12-20T07:49:18;6.40;99.90
9820;DHT22;4949;48.482;9.206;2023-12-20T07:54:23;6.40;99.90
9820;DHT22;4949;48.482;9.206;2023-12-20T07:59:24;6.40;99.90
9820;DHT22;4949;48.482;9.206;2023-12-20T08:04:28;6.70;99.90
9820;DHT22;4949;48.482;9.206;2023-12-20T08:09:29;6.30;99.90
9820;DHT22;4949;48.482;9.206;2023-12-20T08:14:30;6.40;99.90
9820;DHT22;4949;48.482;9.206;2023-12-20T08:19:31;6.40;99.90
9820;DHT22;4949;48.482;9.206;2023-12-20T08:24:32;6.40;99.90
9820;DHT22;4949;48.482;9.206;2023-12-20T08:29:33;6.40;99.90
9820;DHT22;4949;48.482;9.206;2023-12-20T08:34:34;6.40;99.90
9820;DHT22;4949;48.482;9.206;2023-12-20T08:39:35;6.50;99.90
9820;DHT22;4949;48.482;9.206;2023-12-20T08:44:36;6.40;99.90
9820;DHT22;4949;48.482;9.206;2023-12-20T08:49:36;6.40;99.90
9820;DHT22;4949;48.482;9.206;2023-12-20T08:54:39;6.50;99.90
9820;DHT22;4949;48.482;9.206;2023-12-20T08:59:42;6.60;99.90
9820;DHT22;4949;48.482;9.206;2023-12-20T09:04:43;6.60;99.90
9820;DHT22;4949;48.482;9.206;2023-12-20T09:09:46;6.60;99.90
9820;DHT22;4949;48.482;9.206;2023-12-20T09:14:48;6.90;99.90
9820;DHT22;4949;48.482;9.206;2023-12-20T09:19:50;6.50;99.90
9820;DHT22;4949;48.482;9.206;2023-12-20T09:24:52;6.50;99.90
9820;DHT22;4949;48.482;9.206;2023-12-20T09:29:56;6.50;99.90
9820;DHT22;4949;48.482;9.206;2023-12-20T09:34:57;6.70;99.90
9820;DHT22;4949;48.482;9.206;2023-12-20T09:39:58;6.10;99.90
9820;DHT22;4949;48.482;9.206;2023-12-20T09:45:02;6.00;99.90
9820;DHT22;4949;48.482;9.206;2023-12-20T09:50:06;5.80;99.30
9820;DHT22;4949;48.482;9.206;2023-12-20T09:55:07;5.80;99.30
9820;DHT22;4949;48.482;9.206;2023-12-20T10:00:12;5.80;99.00
9820;DHT22;4949;48.482;9.206;2023-12-20T10:05:17;5.80;99.10
9820;DHT22;4949;48.482;9.206;2023-12-20T10:10:20;5.90;99.00
9820;DHT22;4949;48.482;9.206;2023-12-20T10:15:24;6.00;98.60
9820;DHT22;4949;48.482;9.206;2023-12-20T10:20:25;6.00;98.60
9820;DHT22;4949;48.482;9.206;2023-12-20T10:25:27;6.40;98.60
9820;DHT22;4949;48.482;9.206;2023-12-20T10:30:28;6.40;98.10
9820;DHT22;4949;48.482;9.206;2023-12-20T10:35:31;6.30;97.80
9820;DHT22;4949;48.482;9.206;2023-12-20T10:40:35;6.20;97.90
9820;DHT22;4949;48.482;9.206;2023-12-20T10:45:37;6.10;97.10
9820;DHT22;4949;48.482;9.206;2023-12-20T10:50:38;5.90;97.10
9820;DHT22;4949;48.482;9.206;2023-12-20T10:55:40;6.40;97.50
9820;DHT22;4949;48.482;9.206;2023-12-20T11:00:43;6.10;96.80
9820;DHT22;4949;48.482;9.206;2023-12-20T11:06:03;6.10;96.50
9820;DHT22;4949;48.482;9.206;2023-12-20T11:16:32;6.00;95.60
9820;DHT22;4949;48.482;9.206;2023-12-20T11:21:33;5.90;95.10
9820;DHT22;4949;48.482;9.206;2023-12-20T11:26:34;6.50;94.80
9820;DHT22;4949;48.482;9.206;2023-12-20T11:31:40;6.20;94.60
9820;DHT22;4949;48.482;9.206;2023-12-20T11:36:41;6.60;94.60
9820;DHT22;4949;48.482;9.206;2023-12-20T11:41:47;6.50;94.60
9820;DHT22;4949;48.482;9.206;2023-12-20T11:46:49;6.10;94.90
9820;DHT22;4949;48.482;9.206;2023-12-20T11:51:50;6.10;94.50
9820;DHT22;4949;48.482;9.206;2023-12-20T11:56:51;6.40;94.60
9820;DHT22;4949;48.482;9.206;2023-12-20T12:01:54;6.20;94.10
9820;DHT22;4949;48.482;9.206;2023-12-20T12:07:00;6.20;93.70
9820;DHT22;4949;48.482;9.206;2023-12-20T12:12:01;6.30;93.80
9820;DHT22;4949;48.482;9.206;2023-12-20T12:17:03;6.20;93.90
9820;DHT22;4949;48.482;9.206;2023-12-20T12:22:08;6.10;93.00
9820;DHT22;4949;48.482;9.206;2023-12-20T12:27:16;6.50;93.00
9820;DHT22;4949;48.482;9.206;2023-12-20T12:32:17;6.00;92.40
9820;DHT22;4949;48.482;9.206;2023-12-20T12:37:23;5.90;92.50
9820;DHT22;4949;48.482;9.206;2023-12-20T12:42:27;5.90;91.90
9820;DHT22;4949;48.482;9.206;2023-12-20T12:47:29;5.90;91.80
9820;DHT22;4949;48.482;9.206;2023-12-20T12:52:32;6.00;91.90
9820;DHT22;4949;48.482;9.206;2023-12-20T12:57:35;6.30;91.90
9820;DHT22;4949;48.482;9.206;2023-12-20T13:02:36;5.90;92.30
9820;DHT22;4949;48.482;9.206;2023-12-20T13:07:42;6.00;92.10
9820;DHT22;4949;48.482;9.206;2023-12-20T13:12:46;5.90;91.50
9820;DHT22;4949;48.482;9.206;2023-12-20T13:17:46;6.00;91.60
9820;DHT22;4949;48.482;9.206;2023-12-20T13:22:50;6.20;91.30
9820;DHT22;4949;48.482;9.206;2023-12-20T13:27:50;6.50;91.00
9820;DHT22;4949;48.482;9.206;2023-12-20T13:32:52;6.40;90.40
9820;DHT22;4949;48.482;9.206;2023-12-20T13:37:53;6.10;90.40
9820;DHT22;4949;48.482;9.206;2023-12-20T13:42:54;6.10;91.30
9820;DHT22;4949;48.482;9.206;2023-12-20T13:47:55;6.60;91.00
9820;DHT22;4949;48.482;9.206;2023-12-20T13:52:56;7.00;90.40
9820;DHT22;4949;48.482;9.206;2023-12-20T13:57:57;7.40;90.70
9820;DHT22;4949;48.482;9.206;2023-12-20T14:02:57;7.20;90.00
9820;DHT22;4949;48.482;9.206;2023-12-20T14:07:59;7.20;90.30
9820;DHT22;4949;48.482;9.206;2023-12-20T14:13:03;7.00;90.80
9820;DHT22;4949;48.482;9.206;2023-12-20T14:18:07;7.30;90.90
9820;DHT22;4949;48.482;9.206;2023-12-20T14:23:09;6.70;91.20
9820;DHT22;4949;48.482;9.206;2023-12-20T14:28:12;6.80;91.60
9820;DHT22;4949;48.482;9.206;2023-12-20T14:33:14;6.60;91.50
9820;DHT22;4949;48.482;9.206;2023-12-20T14:38:15;6.80;91.90
9820;DHT22;4949;48.482;9.206;2023-12-20T14:43:18;6.60;92.20
9820;DHT22;4949;48.482;9.206;2023-12-20T14:48:21;6.30;92.60
9820;DHT22;4949;48.482;9.206;2023-12-20T14:53:22;6.20;92.80
9820;DHT22;4949;48.482;9.206;2023-12-20T14:58:23;6.00;92.80
9820;DHT22;4949;48.482;9.206;2023-12-20T15:03:23;6.00;93.00
9820;DHT22;4949;48.482;9.206;2023-12-20T15:08:25;6.00;93.00
9820;DHT22;4949;48.482;9.206;2023-12-20T15:13:26;6.10;93.00
9820;DHT22;4949;48.482;9.206;2023-12-20T15:18:30;5.90;93.60
9820;DHT22;4949;48.482;9.206;2023-12-20T15:23:32;6.00;93.70
9820;DHT22;4949;48.482;9.206;2023-12-20T15:28:33;6.20;94.10
9820;DHT22;4949;48.482;9.206;2023-12-20T15:33:34;5.80;94.00
9820;DHT22;4949;48.482;9.206;2023-12-20T15:38:35;6.20;94.20
9820;DHT22;4949;48.482;9.206;2023-12-20T15:43:39;6.00;93.40
9820;DHT22;4949;48.482;9.206;2023-12-20T15:48:44;6.00;93.70
9820;DHT22;4949;48.482;9.206;2023-12-20T15:53:47;5.80;94.20
9820;DHT22;4949;48.482;9.206;2023-12-20T15:58:48;6.20;94.30
9820;DHT22;4949;48.482;9.206;2023-12-20T16:03:52;6.20;94.30
9820;DHT22;4949;48.482;9.206;2023-12-20T16:08:53;5.60;94.20
9820;DHT22;4949;48.482;9.206;2023-12-20T16:13:54;5.70;94.20
9820;DHT22;4949;48.482;9.206;2023-12-20T16:18:55;5.60;94.10
9820;DHT22;4949;48.482;9.206;2023-12-20T16:23:55;5.50;94.60
9820;DHT22;4949;48.482;9.206;2023-12-20T16:28:59;5.50;94.50
9820;DHT22;4949;48.482;9.206;2023-12-20T16:34:02;5.50;94.20
9820;DHT22;4949;48.482;9.206;2023-12-20T16:39:02;5.90;94.50
9820;DHT22;4949;48.482;9.206;2023-12-20T16:44:03;5.40;94.50
9820;DHT22;4949;48.482;9.206;2023-12-20T16:49:04;5.30;94.90
9820;DHT22;4949;48.482;9.206;2023-12-20T16:54:07;5.20;94.90
9820;DHT22;4949;48.482;9.206;2023-12-20T16:59:08;5.30;94.70
9820;DHT22;4949;48.482;9.206;2023-12-20T17:04:08;5.70;95.10
9820;DHT22;4949;48.482;9.206;2023-12-20T17:09:12;5.40;94.50
9820;DHT22;4949;48.482;9.206;2023-12-20T17:14:13;5.30;94.80
9820;DHT22;4949;48.482;9.206;2023-12-20T17:19:16;5.20;95.10
9820;DHT22;4949;48.482;9.206;2023-12-20T17:24:17;5.30;95.00
9820;DHT22;4949;48.482;9.206;2023-12-20T17:29:18;5.30;94.80
9820;DHT22;4949;48.482;9.206;2023-12-20T17:34:21;5.60;95.00
9820;DHT22;4949;48.482;9.206;2023-12-20T17:39:21;5.30;94.50
9820;DHT22;4949;48.482;9.206;2023-12-20T17:44:22;5.30;94.70
9820;DHT22;4949;48.482;9.206;2023-12-20T17:49:24;5.40;94.70
9820;DHT22;4949;48.482;9.206;2023-12-20T17:54:28;5.40;94.60
9820;DHT22;4949;48.482;9.206;2023-12-20T17:59:30;5.50;94.30
9820;DHT22;4949;48.482;9.206;2023-12-20T18:04:31;5.50;94.20
9820;DHT22;4949;48.482;9.206;2023-12-20T18:09:32;5.90;94.40
9820;DHT22;4949;48.482;9.206;2023-12-20T18:14:33;5.50;94.30
9820;DHT22;4949;48.482;9.206;2023-12-20T18:19:36;5.50;94.10
9820;DHT22;4949;48.482;9.206;2023-12-20T18:24:39;5.50;94.00
9820;DHT22;4949;48.482;9.206;2023-12-20T18:29:39;5.50;94.00
9820;DHT22;4949;48.482;9.206;2023-12-20T18:34:40;5.60;93.70
9820;DHT22;4949;48.482;9.206;2023-12-20T18:39:41;5.60;93.80
9820;DHT22;4949;48.482;9.206;2023-12-20T18:44:41;5.60;93.70
9820;DHT22;4949;48.482;9.206;2023-12-20T18:49:44;5.60;93.70
9820;DHT22;4949;48.482;9.206;2023-12-20T18:54:47;5.60;93.70
9820;DHT22;4949;48.482;9.206;2023-12-20T18:59:48;5.40;93.40
9820;DHT22;4949;48.482;9.206;2023-12-20T19:04:49;6.10;93.30
9820;DHT22;4949;48.482;9.206;2023-12-20T19:09:49;5.80;93.10
9820;DHT22;4949;48.482;9.206;2023-12-20T19:14:55;5.70;93.20
9820;DHT22;4949;48.482;9.206;2023-12-20T19:19:55;5.80;92.80
9820;DHT22;4949;48.482;9.206;2023-12-20T19:24:56;5.80;92.50
9820;DHT22;4949;48.482;9.206;2023-12-20T19:29:57;5.80;92.50
9820;DHT22;4949;48.482;9.206;2023-12-20T19:34:59;6.30;93.00
9820;DHT22;4949;48.482;9.206;2023-12-20T19:40:02;5.80;92.90
9820;DHT22;4949;48.482;9.206;2023-12-20T19:45:07;5.80;92.80
9820;DHT22;4949;48.482;9.206;2023-12-20T19:50:08;5.90;92.50
9820;DHT22;4949;48.482;9.206;2023-12-20T19:55:11;5.90;92.60
9820;DHT22;4949;48.482;9.206;2023-12-20T20:00:12;6.40;92.70
9820;DHT22;4949;48.482;9.206;2023-12-20T20:05:16;5.90;92.60
9820;DHT22;4949;48.482;9.206;2023-12-20T20:10:17;6.00;92.70
9820;DHT22;4949;48.482;9.206;2023-12-20T20:15:20;5.80;92.90
9820;DHT22;4949;48.482;9.206;2023-12-20T20:20:23;5.90;93.20
9820;DHT22;4949;48.482;9.206;2023-12-20T20:25:24;6.10;93.90
9820;DHT22;4949;48.482;9.206;2023-12-20T20:30:24;5.90;93.70
9820;DHT22;4949;48.482;9.206;2023-12-20T20:35:25;5.70;94.10
9820;DHT22;4949;48.482;9.206;2023-12-20T20:40:26;5.70;93.70
9820;DHT22;4949;48.482;9.206;2023-12-20T20:45:27;5.80;93.40
9820;DHT22;4949;48.482;9.206;2023-12-20T20:50:29;5.70;93.70
9820;DHT22;4949;48.482;9.206;2023-12-20T20:55:33;5.70;93.80
9820;DHT22;4949;48.482;9.206;2023-12-20T21:00:33;5.80;93.60
9820;DHT22;4949;48.482;9.206;2023-12-20T21:05:34;6.20;93.80
9820;DHT22;4949;48.482;9.206;2023-12-20T21:10:37;5.80;93.40
9820;DHT22;4949;48.482;9.206;2023-12-20T21:15:41;5.70;93.10
9820;DHT22;4949;48.482;9.206;2023-12-20T21:20:44;5.80;93.30
9820;DHT22;4949;48.482;9.206;2023-12-20T21:25:45;5.90;93.20
9820;DHT22;4949;48.482;9.206;2023-12-20T21:30:48;6.10;93.10
9820;DHT22;4949;48.482;9.206;2023-12-20T21:35:49;6.00;93.10
9820;DHT22;4949;48.482;9.206;2023-12-20T21:40:50;5.90;93.20
9820;DHT22;4949;48.482;9.206;2023-12-20T21:45:54;5.90;93.10
9820;DHT22;4949;48.482;9.206;2023-12-20T21:50:56;6.10;93.00
9820;DHT22;4949;48.482;9.206;2023-12-20T21:55:57;6.10;93.00
9820;DHT22;4949;48.482;9.206;2023-12-20T22:00:57;6.10;92.90
9820;DHT22;4949;48.482;9.206;2023-12-20T22:05:58;6.20;92.90
9820;DHT22;4949;48.482;9.206;2023-12-20T22:11:01;6.60;93.30
9820;DHT22;4949;48.482;9.206;2023-12-20T22:16:02;6.00;93.20
9820;DHT22;4949;48.482;9.206;2023-12-20T22:21:09;6.00;93.20
9820;DHT22;4949;48.482;9.206;2023-12-20T22:26:15;6.30;93.30
9820;DHT22;4949;48.482;9.206;2023-12-20T22:31:18;6.10;93.10
9820;DHT22;4949;48.482;9.206;2023-12-20T22:36:19;6.60;93.00
9820;DHT22;4949;48.482;9.206;2023-12-20T22:41:20;6.30;92.60
9820;DHT22;4949;48.482;9.206;2023-12-20T22:46:21;6.50;92.90
9820;DHT22;4949;48.482;9.206;2023-12-20T22:51:23;6.20;92.70
9820;DHT22;4949;48.482;9.206;2023-12-20T22:56:25;6.30;92.60
9820;DHT22;4949;48.482;9.206;2023-12-20T23:01:28;6.50;92.70
9820;DHT22;4949;48.482;9.206;2023-12-20T23:06:31;6.40;92.40
9820;DHT22;4949;48.482;9.206;2023-12-20T23:11:35;6.60;92.80
9820;DHT22;4949;48.482;9.206;2023-12-20T23:16:36;6.40;92.30
9820;DHT22;4949;48.482;9.206;2023-12-20T23:21:37;6.30;92.80
9820;DHT22;4949;48.482;9.206;2023-12-20T23:26:38;6.40;92.60
9820;DHT22;4949;48.482;9.206;2023-12-20T23:31:42;6.20;92.90
9820;DHT22;4949;48.482;9.206;2023-12-20T23:36:43;6.30;92.90
9820;DHT22;4949;48.482;9.206;2023-12-20T23:41:44;6.30;93.00
9820;DHT22;4949;48.482;9.206;2023-12-20T23:46:47;6.30;93.10
9820;DHT22;4949;48.482;9.206;2023-12-20T23:51:49;6.40;93.00
9820;DHT22;4949;48.482;9.206;2023-12-20T23:56:50;6.50;92.80
